Time;durP1;ratioP1;P1;durP2;ratioP2;P2;SDS_P1;SDS_P2;PMS_P1;PMS_P2;Temp;Humidity;BMP_temperature;BMP_pressure;BME280_temperature;BME280_humidity;BME280_pressure;Samples;Min_cycle;Max_cycle;Signal;HPM_P1;HPM_P2
2022/05/30 00:01:17;;;;;;;4.22;0.80;;;14.00;86.80;;;;;;5073952;28;20367;-76
2022/05/30 00:03:44;;;;;;;7.10;1.73;;;14.00;87.00;;;;;;5074037;28;20028;-76
2022/05/30 00:06:19;;;;;;;4.38;0.68;;;14.10;87.20;;;;;;5073938;28;20036;-76
2022/05/30 00:08:45;;;;;;;6.22;0.70;;;14.00;87.20;;;;;;5073507;28;20476;-76
2022/05/30 00:11:13;;;;;;;4.63;0.70;;;14.10;87.30;;;;;;5073446;28;20559;-76
2022/05/30 00:13:39;;;;;;;6.53;1.33;;;14.10;87.20;;;;;;5073604;28;20032;-76
2022/05/30 00:16:07;;;;;;;4.68;0.80;;;14.10;87.20;;;;;;5073602;28;20021;-76
2022/05/30 00:18:33;;;;;;;5.93;1.00;;;14.10;87.30;;;;;;5073766;28;20025;-74
2022/05/30 00:20:59;;;;;;;7.15;0.90;;;14.10;87.30;;;;;;5073698;28;20605;-75
2022/05/30 00:23:25;;;;;;;5.43;1.02;;;14.10;87.40;;;;;;5073333;28;20384;-74
2022/05/30 00:25:51;;;;;;;3.72;0.40;;;14.00;87.70;;;;;;5073560;28;20067;-75
2022/05/30 00:28:17;;;;;;;5.20;0.95;;;14.00;88.10;;;;;;5073253;28;20060;-75
2022/05/30 00:30:44;;;;;;;3.95;0.88;;;14.00;88.10;;;;;;5073496;28;20100;-75
2022/05/30 00:33:10;;;;;;;8.52;1.58;;;14.00;88.10;;;;;;5073109;28;20025;-74
2022/05/30 00:35:37;;;;;;;5.07;0.95;;;14.00;88.30;;;;;;5073266;28;20024;-75
2022/05/30 00:38:03;;;;;;;5.03;1.10;;;13.90;88.40;;;;;;5072903;28;20472;-75
2022/05/30 00:40:28;;;;;;;6.82;1.15;;;13.90;88.40;;;;;;5073492;28;20059;-75
2022/05/30 00:42:54;;;;;;;3.90;0.73;;;13.90;88.50;;;;;;5073201;28;20021;-75
2022/05/30 00:45:20;;;;;;;9.30;1.20;;;13.80;88.50;;;;;;5073410;28;20035;-75
2022/05/30 00:47:46;;;;;;;4.47;0.70;;;13.80;88.60;;;;;;5072569;28;20059;-75
2022/05/30 00:50:12;;;;;;;8.45;1.00;;;13.80;88.70;;;;;;5073157;28;20414;-75
2022/05/30 00:52:43;;;;;;;4.57;0.68;;;13.80;88.60;;;;;;5073354;28;20064;-75
2022/05/30 00:55:13;;;;;;;8.73;0.80;;;13.80;88.60;;;;;;5072724;28;20476;-75
2022/05/30 00:57:41;;;;;;;6.65;1.25;;;13.80;88.50;;;;;;5073383;28;20032;-75
2022/05/30 01:00:26;;;;;;;4.47;0.88;;;13.90;88.40;;;;;;5073026;28;20380;-75
2022/05/30 01:08:26;;;;;;;7.45;0.70;;;13.60;88.60;;;;;;5073000;28;20051;-75
2022/05/30 01:10:51;;;;;;;6.13;0.93;;;13.60;88.90;;;;;;5072889;28;20025;-75
2022/05/30 01:13:17;;;;;;;4.68;1.25;;;13.60;89.00;;;;;;5072758;28;20029;-75
2022/05/30 01:15:43;;;;;;;6.45;0.80;;;13.60;88.80;;;;;;5073100;28;20029;-75
2022/05/30 01:18:23;;;;;;;7.82;0.80;;;13.50;88.70;;;;;;5072564;28;20491;-75
2022/05/30 01:21:03;;;;;;;4.97;0.68;;;13.50;89.10;;;;;;5073224;28;20455;-75
2022/05/30 01:23:54;;;;;;;5.32;0.65;;;13.60;89.00;;;;;;5072815;28;20416;-75
2022/05/30 01:26:51;;;;;;;6.32;0.68;;;13.50;88.70;;;;;;5073067;28;20044;-75
2022/05/30 01:29:31;;;;;;;3.15;0.80;;;13.50;88.80;;;;;;5066718;28;20077;-75
2022/05/30 01:31:56;;;;;;;5.50;0.77;;;13.50;88.90;;;;;;5073141;28;20396;-75
2022/05/30 01:34:24;;;;;;;8.15;1.17;;;13.60;88.80;;;;;;5072607;28;20103;-75
2022/05/30 01:36:50;;;;;;;4.78;0.70;;;13.60;88.70;;;;;;5072944;28;20357;-75
2022/05/30 01:39:16;;;;;;;4.15;1.10;;;13.60;88.50;;;;;;5072778;28;20024;-75
2022/05/30 01:41:41;;;;;;;6.40;0.75;;;13.70;88.40;;;;;;5072422;28;20033;-75
2022/05/30 01:44:07;;;;;;;6.00;0.80;;;13.60;88.30;;;;;;5072640;28;20028;-75
2022/05/30 01:46:33;;;;;;;3.63;0.52;;;13.60;88.40;;;;;;5072520;28;20071;-75
2022/05/30 01:48:59;;;;;;;8.05;1.08;;;13.50;88.60;;;;;;5072480;28;20033;-75
2022/05/30 01:51:25;;;;;;;7.63;1.33;;;13.50;88.70;;;;;;5072663;28;20479;-74
2022/05/30 01:53:52;;;;;;;6.72;0.85;;;13.40;89.00;;;;;;5072515;28;20116;-75
2022/05/30 01:56:18;;;;;;;5.07;1.00;;;13.30;89.30;;;;;;5076282;28;20032;-75
2022/05/30 01:58:44;;;;;;;6.60;1.27;;;13.30;89.30;;;;;;5076317;28;20024;-75
2022/05/30 02:01:16;;;;;;;6.93;1.17;;;13.30;89.50;;;;;;5075977;28;20116;-75
2022/05/30 02:03:43;;;;;;;4.95;0.90;;;13.30;89.60;;;;;;5076190;28;20024;-75
2022/05/30 02:06:09;;;;;;;6.60;0.85;;;13.30;89.60;;;;;;5075914;28;20032;-75
2022/05/30 02:08:34;;;;;;;6.80;1.15;;;13.30;89.60;;;;;;5075916;28;20033;-75
2022/05/30 02:11:00;;;;;;;5.32;0.90;;;13.30;89.60;;;;;;5076068;28;20020;-75
2022/05/30 02:13:25;;;;;;;6.65;1.42;;;13.30;89.60;;;;;;5075782;28;20456;-75
2022/05/30 02:18:35;;;;;;;5.15;0.90;;;13.30;89.60;;;;;;5075677;28;20089;-75
2022/05/30 02:21:01;;;;;;;6.85;1.42;;;13.30;89.60;;;;;;5075703;28;20024;-75
2022/05/30 02:23:26;;;;;;;5.07;1.10;;;13.30;89.70;;;;;;5075665;28;20055;-75
2022/05/30 02:25:52;;;;;;;3.83;0.80;;;13.30;89.80;;;;;;5075549;28;20023;-75
2022/05/30 02:28:18;;;;;;;4.22;0.60;;;13.20;89.90;;;;;;5075755;28;20029;-75
2022/05/30 02:30:43;;;;;;;6.25;0.88;;;13.10;90.00;;;;;;5075214;28;20494;-75
2022/05/30 02:38:37;;;;;;;7.63;1.25;;;13.20;90.00;;;;;;5075263;28;20059;-75
2022/05/30 02:41:03;;;;;;;6.60;1.55;;;13.20;90.00;;;;;;5075178;28;20472;-75
2022/05/30 02:43:28;;;;;;;2.78;0.65;;;13.20;90.30;;;;;;5075251;28;20028;-75
2022/05/30 02:45:54;;;;;;;4.68;1.05;;;13.20;90.10;;;;;;5075166;28;20059;-74
2022/05/30 02:48:21;;;;;;;5.13;1.13;;;13.20;90.00;;;;;;5074954;28;20057;-75
2022/05/30 02:50:46;;;;;;;7.10;1.25;;;13.20;90.00;;;;;;5074867;28;20417;-74
2022/05/30 02:53:12;;;;;;;5.65;0.80;;;13.10;90.00;;;;;;5075138;28;20112;-75
2022/05/30 02:55:38;;;;;;;4.32;0.90;;;13.10;90.10;;;;;;5075195;28;20024;-75
2022/05/30 02:58:03;;;;;;;6.05;1.10;;;13.00;90.30;;;;;;5075370;28;20047;-74
2022/05/30 03:00:30;;;;;;;5.97;1.02;;;12.90;90.30;;;;;;5074904;28;20056;-75
2022/05/30 03:02:55;;;;;;;5.53;1.17;;;12.80;90.40;;;;;;5075159;28;20027;-75
2022/05/30 03:05:21;;;;;;;7.13;1.38;;;12.80;90.60;;;;;;5075156;28;20024;-75
2022/05/30 03:07:47;;;;;;;6.13;0.80;;;12.70;90.50;;;;;;5074456;28;20035;-75
2022/05/30 03:10:13;;;;;;;5.05;1.10;;;12.70;90.60;;;;;;5074568;28;20028;-74
2022/05/30 03:12:38;;;;;;;5.68;0.90;;;12.70;90.60;;;;;;5074644;28;20602;-75
2022/05/30 03:15:04;;;;;;;5.32;1.05;;;12.80;90.70;;;;;;5074819;28;20052;-76
2022/05/30 03:17:30;;;;;;;7.13;1.10;;;12.70;90.90;;;;;;5074462;28;20027;-76
2022/05/30 03:19:56;;;;;;;7.20;1.20;;;12.70;90.80;;;;;;5074502;28;20036;-76
2022/05/30 03:22:22;;;;;;;8.50;1.52;;;12.70;90.80;;;;;;5074735;28;20029;-76
2022/05/30 03:24:47;;;;;;;5.05;0.80;;;12.70;90.80;;;;;;5074325;28;20029;-76
2022/05/30 03:27:13;;;;;;;8.23;1.10;;;12.70;90.80;;;;;;5074236;28;20028;-75
2022/05/30 03:29:38;;;;;;;5.68;1.40;;;12.70;90.80;;;;;;5074370;28;20024;-76
2022/05/30 03:32:05;;;;;;;5.85;1.40;;;12.60;90.90;;;;;;5074359;28;20020;-76
2022/05/30 03:34:30;;;;;;;4.50;0.98;;;12.60;90.90;;;;;;5074455;28;20028;-75
2022/05/30 03:36:56;;;;;;;5.22;1.08;;;12.60;91.00;;;;;;5074483;28;20575;-75
2022/05/30 03:39:21;;;;;;;4.15;1.08;;;12.60;91.10;;;;;;5074085;28;20021;-76
2022/05/30 03:41:47;;;;;;;3.67;0.65;;;12.50;91.20;;;;;;5074181;28;20033;-75
2022/05/30 03:44:13;;;;;;;3.88;0.70;;;12.60;91.20;;;;;;5074036;28;20021;-76
2022/05/30 03:46:38;;;;;;;4.80;1.05;;;12.70;91.20;;;;;;5073699;28;20052;-76
2022/05/30 03:49:04;;;;;;;3.70;1.15;;;12.80;91.10;;;;;;5074043;28;20070;-76
2022/05/30 03:51:32;;;;;;;3.45;0.88;;;12.90;91.00;;;;;;5074019;28;20021;-76
2022/05/30 03:53:57;;;;;;;6.57;1.80;;;12.90;91.00;;;;;;5073568;28;20032;-76
2022/05/30 03:56:23;;;;;;;8.70;1.33;;;13.00;91.00;;;;;;5074175;28;20017;-76
2022/05/30 03:58:49;;;;;;;5.18;0.80;;;13.00;90.90;;;;;;5073922;28;20384;-76
2022/05/30 04:01:14;;;;;;;3.78;1.10;;;13.00;90.90;;;;;;5073732;28;20020;-75
2022/05/30 04:03:41;;;;;;;3.95;0.90;;;13.10;90.80;;;;;;5073907;28;20055;-75
2022/05/30 04:06:07;;;;;;;3.10;0.60;;;13.20;90.80;;;;;;5073999;28;20016;-75
2022/05/30 04:08:33;;;;;;;5.72;0.88;;;13.20;90.70;;;;;;5073459;28;20036;-75
2022/05/30 04:10:59;;;;;;;4.65;1.10;;;13.30;90.70;;;;;;5073578;28;20357;-75
2022/05/30 04:13:24;;;;;;;5.93;0.57;;;13.30;90.70;;;;;;5073709;28;20392;-75
2022/05/30 04:15:50;;;;;;;3.90;0.80;;;13.40;90.60;;;;;;5073548;28;20021;-75
2022/05/30 04:18:16;;;;;;;6.25;0.68;;;13.40;90.40;;;;;;5072997;28;20035;-75
2022/05/30 04:20:42;;;;;;;4.18;0.60;;;13.40;90.40;;;;;;5073787;28;20025;-75
2022/05/30 04:23:08;;;;;;;7.20;0.80;;;13.40;90.40;;;;;;5073625;28;20063;-75
2022/05/30 04:25:34;;;;;;;2.60;0.70;;;13.40;90.30;;;;;;5073627;28;20025;-75
2022/05/30 04:27:59;;;;;;;5.22;1.02;;;13.20;90.30;;;;;;5073571;28;20033;-75
2022/05/30 04:30:25;;;;;;;3.95;1.10;;;13.10;90.50;;;;;;5073280;28;20446;-76
2022/05/30 04:32:51;;;;;;;7.47;1.02;;;13.00;90.70;;;;;;5073543;28;20392;-75
2022/05/30 04:35:18;;;;;;;3.53;1.10;;;12.90;90.90;;;;;;5073536;28;20021;-75
2022/05/30 04:37:49;;;;;;;3.33;0.90;;;12.90;91.00;;;;;;5073494;28;20039;-75
2022/05/30 04:40:18;;;;;;;5.40;1.10;;;12.90;91.10;;;;;;5073240;28;20032;-75
2022/05/30 04:42:45;;;;;;;4.30;0.82;;;12.90;91.10;;;;;;5073029;28;20032;-75
2022/05/30 04:45:11;;;;;;;4.20;0.88;;;12.90;91.20;;;;;;5073117;28;20384;-75
2022/05/30 04:47:39;;;;;;;5.25;1.30;;;12.90;91.30;;;;;;5072685;28;20052;-75
2022/05/30 04:50:06;;;;;;;2.88;0.70;;;13.00;91.30;;;;;;5072961;28;20032;-75
2022/05/30 04:52:31;;;;;;;4.85;0.80;;;13.10;91.20;;;;;;5073081;28;20025;-75
2022/05/30 04:54:58;;;;;;;6.38;1.05;;;13.10;91.10;;;;;;5073365;28;20590;-75
2022/05/30 04:57:23;;;;;;;5.70;1.27;;;13.10;91.20;;;;;;5072866;28;20389;-75
2022/05/30 04:59:49;;;;;;;3.20;0.90;;;13.10;91.30;;;;;;5072963;28;20029;-75
2022/05/30 05:02:16;;;;;;;5.13;1.08;;;13.10;91.30;;;;;;5072966;28;20108;-75
2022/05/30 05:04:42;;;;;;;5.50;0.90;;;13.10;91.10;;;;;;5072682;28;20070;-76
2022/05/30 05:07:08;;;;;;;4.03;1.00;;;13.00;91.20;;;;;;5073120;28;20033;-75
2022/05/30 05:09:46;;;;;;;4.00;0.68;;;13.10;91.00;;;;;;5072763;28;20040;-75
2022/05/30 05:12:12;;;;;;;4.97;0.82;;;13.00;91.20;;;;;;5073094;28;20074;-76
2022/05/30 05:14:38;;;;;;;4.97;0.80;;;12.90;91.20;;;;;;5072629;28;20029;-76
2022/05/30 05:17:05;;;;;;;4.60;0.70;;;13.00;91.30;;;;;;5072658;28;20027;-75
2022/05/30 05:19:32;;;;;;;5.47;1.48;;;13.00;91.20;;;;;;5072986;28;20574;-76
2022/05/30 05:21:58;;;;;;;3.45;0.60;;;13.00;91.20;;;;;;5073073;28;20136;-76
2022/05/30 05:24:25;;;;;;;4.57;0.70;;;13.10;91.20;;;;;;5072529;28;20150;-76
2022/05/30 05:26:50;;;;;;;5.75;0.73;;;13.20;91.20;;;;;;5072132;28;20037;-76
2022/05/30 05:29:17;;;;;;;3.72;0.90;;;13.20;91.00;;;;;;5073086;28;20032;-75
2022/05/30 05:31:43;;;;;;;2.47;1.05;;;13.20;91.00;;;;;;5076199;28;20043;-76
2022/05/30 05:34:11;;;;;;;4.20;0.75;;;13.30;91.00;;;;;;5076645;28;20476;-76
2022/05/30 05:36:40;;;;;;;4.28;0.82;;;13.40;90.80;;;;;;5076597;28;20411;-76
2022/05/30 05:39:06;;;;;;;3.00;0.60;;;13.40;90.60;;;;;;5076090;28;20029;-76
2022/05/30 05:41:32;;;;;;;3.40;0.68;;;13.50;90.50;;;;;;5076379;28;20032;-75
2022/05/30 05:43:58;;;;;;;4.95;0.80;;;13.50;90.40;;;;;;5075880;28;20036;-75
2022/05/30 05:46:29;;;;;;;2.80;0.60;;;13.60;90.20;;;;;;5075676;28;20048;-75
2022/05/30 05:48:55;;;;;;;2.85;0.52;;;13.60;89.90;;;;;;5076386;28;20037;-75
2022/05/30 05:51:22;;;;;;;6.18;0.57;;;13.60;88.80;;;;;;5075955;28;20384;-75
2022/05/30 05:53:49;;;;;;;3.28;0.43;;;13.50;88.30;;;;;;5076282;28;20032;-75
2022/05/30 05:56:29;;;;;;;2.35;0.50;;;13.40;88.40;;;;;;5076313;28;20028;-75
2022/05/30 05:58:55;;;;;;;2.47;0.50;;;13.50;88.70;;;;;;5075731;28;20024;-76
2022/05/30 06:01:27;;;;;;;4.47;0.80;;;13.50;89.10;;;;;;5075773;28;20025;-75
2022/05/30 06:03:55;;;;;;;3.53;0.60;;;13.50;89.20;;;;;;5076001;28;20049;-75
2022/05/30 06:06:21;;;;;;;4.78;0.60;;;13.60;88.70;;;;;;5076106;28;20270;-75
2022/05/30 06:08:46;;;;;;;4.45;0.40;;;13.60;88.50;;;;;;5075839;28;20135;-76
2022/05/30 06:11:12;;;;;;;2.80;0.30;;;13.60;88.30;;;;;;5075405;28;20380;-75
2022/05/30 06:13:40;;;;;;;3.78;0.40;;;13.60;88.00;;;;;;5075497;28;20051;-75
2022/05/30 06:16:11;;;;;;;3.50;0.40;;;13.70;88.20;;;;;;5075797;28;20063;-75
2022/05/30 06:18:37;;;;;;;2.40;0.20;;;13.70;87.20;;;;;;5075652;28;20099;-75
2022/05/30 06:21:03;;;;;;;2.63;0.30;;;13.80;86.70;;;;;;5075530;28;20024;-74
2022/05/30 06:23:29;;;;;;;1.33;0.17;;;13.80;84.60;;;;;;5075375;28;20035;-75
2022/05/30 06:25:55;;;;;;;1.67;0.20;;;13.70;83.80;;;;;;5075216;28;20115;-76
2022/05/30 06:28:21;;;;;;;2.55;0.20;;;13.70;84.30;;;;;;5075055;28;20384;-75
2022/05/30 06:30:47;;;;;;;1.40;0.15;;;13.70;84.60;;;;;;5075367;28;20463;-75
2022/05/30 06:33:13;;;;;;;1.85;0.13;;;13.90;84.40;;;;;;5075689;28;20115;-75
2022/05/30 06:35:44;;;;;;;3.30;0.22;;;14.00;83.10;;;;;;5075325;28;20024;-75
2022/05/30 06:38:10;;;;;;;3.42;0.28;;;14.10;83.00;;;;;;5075445;28;20028;-75
2022/05/30 06:40:36;;;;;;;2.22;0.10;;;14.10;81.60;;;;;;5074825;28;20028;-75
2022/05/30 06:43:02;;;;;;;4.93;0.30;;;14.10;81.30;;;;;;5075391;28;20372;-75
2022/05/30 06:45:28;;;;;;;4.07;0.20;;;14.00;80.40;;;;;;5075220;28;20036;-75
2022/05/30 06:47:53;;;;;;;1.85;0.20;;;13.90;80.70;;;;;;5074713;28;20094;-75
2022/05/30 06:50:19;;;;;;;2.60;0.30;;;13.90;81.20;;;;;;5074539;28;20052;-75
2022/05/30 06:52:44;;;;;;;2.53;0.40;;;13.90;81.50;;;;;;5074628;28;20036;-74
2022/05/30 06:55:10;;;;;;;2.60;0.30;;;13.90;82.00;;;;;;5074808;28;20368;-75
2022/05/30 07:00:20;;;;;;;3.17;0.20;;;13.90;82.50;;;;;;5074835;28;20051;-74
2022/05/30 07:02:46;;;;;;;3.33;0.20;;;14.00;81.60;;;;;;5074135;28;20446;-75
2022/05/30 07:05:13;;;;;;;3.85;0.25;;;13.90;80.70;;;;;;5074529;28;20036;-75
2022/05/30 07:07:40;;;;;;;2.88;0.30;;;13.90;80.80;;;;;;5074279;28;20024;-75
2022/05/30 07:10:07;;;;;;;2.80;0.20;;;13.90;81.00;;;;;;5074361;28;20024;-75
2022/05/30 07:12:33;;;;;;;1.42;0.10;;;13.90;81.50;;;;;;5074372;28;20020;-75
2022/05/30 07:14:58;;;;;;;4.00;0.30;;;13.90;81.70;;;;;;5074332;28;20369;-75
2022/05/30 07:17:25;;;;;;;1.75;0.17;;;14.00;81.50;;;;;;5073964;28;20052;-75
2022/05/30 07:19:51;;;;;;;2.08;0.20;;;14.10;81.10;;;;;;5074420;28;20021;-75
2022/05/30 07:22:17;;;;;;;2.15;0.25;;;14.00;81.40;;;;;;5074243;28;20028;-75
2022/05/30 07:24:43;;;;;;;2.55;0.20;;;14.10;81.90;;;;;;5074195;28;20086;-75
2022/05/30 07:27:09;;;;;;;3.28;0.20;;;14.10;81.80;;;;;;5074492;28;20075;-75
2022/05/30 07:29:34;;;;;;;1.95;0.20;;;14.20;81.90;;;;;;5074601;28;20081;-75
2022/05/30 07:32:01;;;;;;;4.82;0.30;;;14.30;82.30;;;;;;5074317;28;20106;-75
2022/05/30 07:34:27;;;;;;;2.33;0.28;;;14.30;82.10;;;;;;5074270;28;20388;-75
2022/05/30 07:36:53;;;;;;;4.43;0.57;;;14.30;82.10;;;;;;5074195;28;20025;-75
2022/05/30 07:39:19;;;;;;;3.90;0.38;;;14.30;81.70;;;;;;5074063;28;20032;-75
2022/05/30 07:41:45;;;;;;;4.43;0.30;;;14.20;81.50;;;;;;5073887;28;20507;-75
2022/05/30 07:44:10;;;;;;;2.58;0.20;;;14.10;81.60;;;;;;5074165;28;20070;-75
2022/05/30 07:46:39;;;;;;;4.25;0.30;;;14.10;81.70;;;;;;5073090;28;20102;-75
2022/05/30 07:49:05;;;;;;;3.78;1.00;;;14.10;81.80;;;;;;5073009;28;20120;-75
2022/05/30 07:51:30;;;;;;;5.05;0.35;;;14.10;81.70;;;;;;5073164;28;20041;-74
2022/05/30 07:53:57;;;;;;;3.65;0.25;;;14.00;82.00;;;;;;5073033;28;20025;-75
2022/05/30 07:56:22;;;;;;;2.17;0.30;;;14.00;82.20;;;;;;5073811;28;20020;-75
2022/05/30 07:58:49;;;;;;;4.15;0.30;;;14.10;82.00;;;;;;5073711;28;20028;-75
2022/05/30 08:01:18;;;;;;;2.65;0.30;;;14.10;82.00;;;;;;5073807;28;20025;-75
2022/05/30 08:03:45;;;;;;;4.25;0.25;;;14.10;81.90;;;;;;5073550;28;20051;-75
2022/05/30 08:06:14;;;;;;;3.47;0.20;;;14.20;82.50;;;;;;5073778;28;20107;-75
2022/05/30 08:08:41;;;;;;;4.82;0.68;;;14.20;82.40;;;;;;5073484;28;20032;-75
2022/05/30 08:11:07;;;;;;;2.40;0.20;;;14.20;82.50;;;;;;5073531;28;20489;-75
2022/05/30 08:13:33;;;;;;;4.82;0.25;;;14.30;82.60;;;;;;5073831;28;20035;-75
2022/05/30 08:15:59;;;;;;;2.53;0.30;;;14.30;81.90;;;;;;5073811;28;20016;-75
2022/05/30 08:18:25;;;;;;;3.33;0.28;;;14.30;81.50;;;;;;5073106;28;20387;-75
2022/05/30 08:20:50;;;;;;;3.08;0.40;;;14.40;80.90;;;;;;5073356;28;20059;-75
2022/05/30 08:23:17;;;;;;;4.43;0.30;;;14.50;80.50;;;;;;5073296;28;20066;-75
2022/05/30 08:25:45;;;;;;;2.83;0.52;;;14.60;79.30;;;;;;5073666;28;20035;-76
2022/05/30 08:28:11;;;;;;;4.72;0.30;;;14.50;79.40;;;;;;5073299;28;20032;-76
2022/05/30 08:30:37;;;;;;;2.88;0.20;;;14.50;79.70;;;;;;5073325;28;20021;-76
2022/05/30 08:33:12;;;;;;;2.55;0.10;;;14.50;80.00;;;;;;5072855;28;20031;-76
2022/05/30 08:35:37;;;;;;;5.22;0.30;;;14.60;79.00;;;;;;5073318;28;20051;-76
2022/05/30 08:38:04;;;;;;;3.28;0.45;;;14.60;78.10;;;;;;5073518;28;20024;-76
2022/05/30 08:43:37;;;;;;;6.18;0.55;;;14.40;79.40;;;;;;5073610;28;20035;-74
2022/05/30 08:46:34;;;;;;;2.92;0.40;;;14.40;79.30;;;;;;5072917;28;20020;-75
2022/05/30 08:49:22;;;;;;;3.58;0.20;;;14.40;79.10;;;;;;5073199;28;20040;-75
2022/05/30 08:51:56;;;;;;;3.15;0.22;;;14.40;79.10;;;;;;5072925;28;20021;-75
2022/05/30 08:54:48;;;;;;;2.53;0.20;;;14.50;78.50;;;;;;5073080;28;20099;-76
2022/05/30 08:57:33;;;;;;;1.65;0.20;;;14.50;79.10;;;;;;5072932;28;20029;-76
2022/05/30 09:00:14;;;;;;;3.35;0.20;;;14.50;79.00;;;;;;5072853;28;20044;-76
2022/05/30 09:02:49;;;;;;;1.70;0.20;;;14.50;80.30;;;;;;5072941;28;20029;-76
2022/05/30 09:05:24;;;;;;;3.72;0.30;;;14.40;80.00;;;;;;5076666;28;20025;-75
2022/05/30 09:07:54;;;;;;;2.38;0.20;;;14.50;78.40;;;;;;5076392;28;20069;-76
2022/05/30 09:10:29;;;;;;;4.60;0.28;;;14.60;77.20;;;;;;5076733;28;20024;-76
2022/05/30 09:13:23;;;;;;;2.80;0.20;;;14.70;76.60;;;;;;5077188;28;20107;-75
2022/05/30 09:16:02;;;;;;;2.72;0.13;;;14.70;76.60;;;;;;5076295;28;20029;-75
2022/05/30 09:18:35;;;;;;;2.90;0.40;;;14.80;77.10;;;;;;5076856;28;20380;-74
2022/05/30 09:21:00;;;;;;;1.88;0.20;;;14.80;77.00;;;;;;5076601;28;20027;-74
2022/05/30 09:23:26;;;;;;;2.95;0.10;;;14.90;77.80;;;;;;5077023;28;20033;-75
2022/05/30 09:26:01;;;;;;;3.72;0.28;;;14.90;75.30;;;;;;5076869;28;20017;-75
2022/05/30 09:28:41;;;;;;;3.40;0.20;;;14.90;75.50;;;;;;5076763;28;20032;-75
2022/05/30 09:31:36;;;;;;;3.33;0.20;;;14.90;75.20;;;;;;5076284;28;20075;-75
2022/05/30 09:34:29;;;;;;;2.13;0.40;;;14.90;75.40;;;;;;5076410;28;20028;-75
2022/05/30 09:36:55;;;;;;;2.65;0.17;;;15.10;76.00;;;;;;5076632;28;20202;-75
2022/05/30 09:39:21;;;;;;;2.70;0.32;;;15.30;75.70;;;;;;5041573;28;20086;-74
2022/05/30 09:41:56;;;;;;;2.40;0.20;;;15.60;74.70;;;;;;5016176;28;20317;-74
2022/05/30 09:44:26;;;;;;;1.70;0.20;;;15.90;74.90;;;;;;5016461;28;20278;-74
2022/05/30 09:47:06;;;;;;;1.17;0.15;;;16.10;74.20;;;;;;5067112;28;20048;-75
2022/05/30 09:49:45;;;;;;;2.53;0.20;;;16.30;73.30;;;;;;5076452;28;20086;-76
2022/05/30 09:52:40;;;;;;;4.07;0.20;;;16.50;73.30;;;;;;5076081;28;20039;-76
2022/05/30 09:55:36;;;;;;;3.65;0.20;;;16.80;69.80;;;;;;5067218;28;20532;-76
2022/05/30 09:58:03;;;;;;;5.05;0.20;;;16.90;68.70;;;;;;5076002;28;20024;-76
2022/05/30 10:00:54;;;;;;;2.20;0.10;;;17.00;68.00;;;;;;5075666;28;20104;-76
2022/05/30 10:03:35;;;;;;;2.28;0.30;;;17.10;69.80;;;;;;5076171;28;20032;-76
2022/05/30 10:06:30;;;;;;;4.28;0.77;;;17.30;69.70;;;;;;5076121;28;20107;-76
2022/05/30 10:09:22;;;;;;;3.20;0.20;;;17.40;69.20;;;;;;5062313;28;20032;-76
2022/05/30 10:11:54;;;;;;;3.50;0.20;;;17.60;68.20;;;;;;5075961;28;20039;-75
2022/05/30 10:14:23;;;;;;;3.58;0.20;;;17.50;68.20;;;;;;5075188;28;20032;-76
2022/05/30 10:16:51;;;;;;;2.08;0.20;;;17.30;68.70;;;;;;5074718;28;20032;-75
2022/05/30 10:19:30;;;;;;;1.55;0.20;;;17.20;69.20;;;;;;5075168;28;20055;-76
2022/05/30 10:28:17;;;;;;;3.83;0.50;;;16.40;68.30;;;;;;5075502;28;19919;-75
2022/05/30 10:31:07;;;;;;;2.85;0.50;;;16.20;68.80;;;;;;5075387;28;20472;-75
2022/05/30 10:34:02;;;;;;;6.28;0.38;;;15.80;68.70;;;;;;5075389;28;20472;-75
2022/05/30 10:36:44;;;;;;;1.45;0.32;;;15.50;69.60;;;;;;5075593;28;20028;-75
2022/05/30 10:39:40;;;;;;;3.40;0.47;;;15.40;70.70;;;;;;5075475;28;20365;-75
2022/05/30 10:42:13;;;;;;;2.42;0.40;;;15.40;72.10;;;;;;5075036;28;20024;-75
2022/05/30 10:44:44;;;;;;;3.28;0.52;;;15.30;72.20;;;;;;5075432;28;20047;-76
2022/05/30 10:47:17;;;;;;;3.33;0.40;;;15.30;72.00;;;;;;5075076;28;20052;-76
2022/05/30 10:50:01;;;;;;;3.10;0.40;;;15.20;72.20;;;;;;5074889;28;20028;-75
2022/05/30 10:52:59;;;;;;;4.18;0.45;;;15.20;72.40;;;;;;5074953;28;20028;-75
2022/05/30 10:55:47;;;;;;;4.22;0.70;;;15.20;72.60;;;;;;5072807;28;20568;-75
2022/05/30 10:58:25;;;;;;;3.42;0.40;;;15.20;72.00;;;;;;5074982;28;20063;-75
2022/05/30 11:01:27;;;;;;;2.28;0.30;;;15.20;71.50;;;;;;5074731;28;20510;-74
2022/05/30 11:04:20;;;;;;;2.40;0.40;;;15.20;71.10;;;;;;5066493;28;20043;-74
2022/05/30 11:06:49;;;;;;;2.38;0.30;;;15.20;71.00;;;;;;5075119;28;20025;-75
2022/05/30 11:09:45;;;;;;;5.43;0.30;;;15.20;70.60;;;;;;5074515;28;20037;-76
2022/05/30 11:12:27;;;;;;;5.00;0.52;;;15.20;70.70;;;;;;5075051;28;20025;-76
2022/05/30 11:15:40;;;;;;;2.45;0.30;;;15.30;71.20;;;;;;5074756;28;20116;-76
2022/05/30 11:18:15;;;;;;;1.15;0.20;;;15.20;70.40;;;;;;5012854;28;20022;-75
2022/05/30 11:20:50;;;;;;;3.08;0.30;;;15.20;70.40;;;;;;5065948;28;20048;-75
2022/05/30 11:23:18;;;;;;;3.30;0.50;;;15.20;70.30;;;;;;5074320;28;20453;-75
2022/05/30 11:26:10;;;;;;;3.92;0.47;;;15.30;69.70;;;;;;5074618;28;20037;-75
2022/05/30 11:28:54;;;;;;;1.42;0.40;;;15.30;69.70;;;;;;5073756;28;20083;-75
2022/05/30 11:31:40;;;;;;;2.25;0.35;;;15.40;69.20;;;;;;5074483;28;20048;-75
2022/05/30 11:34:06;;;;;;;3.40;0.40;;;15.40;69.20;;;;;;5074503;28;20032;-75
2022/05/30 11:36:54;;;;;;;1.33;0.22;;;15.40;68.60;;;;;;5074158;28;20376;-75
2022/05/30 11:39:31;;;;;;;3.33;0.40;;;15.40;69.20;;;;;;5074217;28;20029;-76
2022/05/30 11:42:30;;;;;;;2.42;0.40;;;15.50;69.20;;;;;;5074502;28;20029;-75
2022/05/30 11:44:59;;;;;;;1.77;0.30;;;15.50;69.70;;;;;;5074422;28;20085;-75
2022/05/30 11:48:01;;;;;;;3.38;0.28;;;15.50;69.40;;;;;;5073847;28;20049;-75
2022/05/30 11:50:38;;;;;;;4.13;0.35;;;15.40;70.50;;;;;;5073575;28;20498;-76
2022/05/30 11:53:09;;;;;;;6.07;0.60;;;15.40;71.60;;;;;;5073770;28;20024;-76
2022/05/30 11:56:03;;;;;;;2.75;0.40;;;15.50;71.50;;;;;;5073360;28;20056;-75
2022/05/30 11:59:07;;;;;;;2.97;0.30;;;15.50;71.10;;;;;;5073159;28;20030;-75
2022/05/30 12:01:36;;;;;;;4.85;0.20;;;15.60;70.70;;;;;;5051502;28;20047;-76
2022/05/30 12:04:29;;;;;;;1.50;0.28;;;15.70;70.70;;;;;;5073821;28;20025;-76
2022/05/30 12:06:55;;;;;;;3.60;0.43;;;15.80;70.60;;;;;;5073774;28;20114;-76
2022/05/30 12:09:29;;;;;;;3.22;0.77;;;15.70;70.50;;;;;;5073705;28;20123;-75
2022/05/30 12:12:13;;;;;;;1.50;0.30;;;15.80;70.60;;;;;;5073512;28;20021;-76
2022/05/30 12:15:08;;;;;;;2.35;0.40;;;15.80;70.70;;;;;;5073443;28;20602;-76
2022/05/30 12:23:47;;;;;;;2.08;0.20;;;15.90;70.60;;;;;;5073524;28;20025;-76
2022/05/30 12:23:49;;;;;;;4.45;0.32;;;16.00;69.00;;;;;;5073394;28;20082;-76
2022/05/30 12:26:21;;;;;;;3.72;0.20;;;16.10;69.30;;;;;;5073605;28;20028;-76
2022/05/30 12:28:52;;;;;;;2.78;0.40;;;16.10;68.30;;;;;;5073409;28;20127;-77
2022/05/30 12:31:33;;;;;;;1.30;0.22;;;16.10;68.10;;;;;;5073211;28;20105;-75
2022/05/30 12:33:59;;;;;;;2.70;0.50;;;16.20;68.70;;;;;;5073430;28;20028;-75
2022/05/30 12:36:24;;;;;;;4.40;0.60;;;16.20;69.40;;;;;;5073141;28;20027;-75
2022/05/30 12:38:50;;;;;;;2.33;0.52;;;16.20;69.50;;;;;;5072854;28;20032;-76
2022/05/30 12:41:20;;;;;;;5.60;0.50;;;16.20;69.50;;;;;;5073375;28;20134;-75
2022/05/30 12:43:47;;;;;;;4.55;0.60;;;16.10;69.60;;;;;;5073038;28;20099;-75
2022/05/30 12:46:44;;;;;;;2.42;0.40;;;15.90;70.20;;;;;;5073179;28;20029;-75
2022/05/30 12:49:32;;;;;;;4.85;0.50;;;15.80;70.60;;;;;;5063015;28;20098;-76
2022/05/30 12:52:01;;;;;;;3.08;0.43;;;15.80;71.50;;;;;;5072937;28;20108;-75
2022/05/30 12:54:34;;;;;;;3.72;0.50;;;15.90;71.00;;;;;;5073506;28;20353;-75
2022/05/30 12:57:02;;;;;;;5.63;0.50;;;16.00;70.00;;;;;;5073306;28;20024;-76
2022/05/30 12:59:34;;;;;;;3.03;0.60;;;16.10;69.00;;;;;;5073368;28;20032;-76
2022/05/30 13:02:03;;;;;;;7.53;0.70;;;16.20;68.80;;;;;;5073315;28;20029;-76
2022/05/30 13:04:41;;;;;;;2.83;0.40;;;16.30;69.60;;;;;;5072811;28;20028;-76
2022/05/30 13:07:06;;;;;;;4.53;0.60;;;16.40;70.00;;;;;;5072809;28;20029;-76
2022/05/30 13:09:37;;;;;;;4.13;0.52;;;16.50;70.50;;;;;;5072932;28;20031;-76
2022/05/30 13:12:12;;;;;;;3.90;0.40;;;16.80;70.70;;;;;;5072758;28;20016;-76
2022/05/30 13:14:40;;;;;;;2.47;0.30;;;17.10;68.50;;;;;;5073080;28;20020;-76
2022/05/30 13:17:16;;;;;;;4.88;0.50;;;17.20;67.30;;;;;;5072452;28;20017;-76
2022/05/30 13:19:54;;;;;;;4.60;0.50;;;17.20;65.90;;;;;;5072877;28;20024;-77
2022/05/30 13:22:35;;;;;;;1.40;0.30;;;17.20;66.60;;;;;;5072423;28;20032;-76
2022/05/30 13:25:03;;;;;;;2.42;0.40;;;17.20;64.50;;;;;;5072693;28;20017;-76
2022/05/30 13:27:29;;;;;;;2.47;0.70;;;17.30;65.90;;;;;;5072056;28;20194;-76
2022/05/30 13:30:03;;;;;;;5.55;0.32;;;17.40;65.70;;;;;;5072080;28;20461;-76
2022/05/30 13:32:29;;;;;;;3.45;0.25;;;17.20;64.00;;;;;;5072562;28;20376;-77
2022/05/30 13:34:59;;;;;;;3.40;0.32;;;17.10;64.90;;;;;;5072469;28;20020;-74
2022/05/30 13:37:31;;;;;;;3.30;0.40;;;17.30;66.00;;;;;;5072760;28;20020;-75